Mt Bomar Mars — 9HCM9 — position and weather

sailwx.info

Track history (hours):
 
Tides and Currents Weather Stations Pressure Air Temp Water Temp Dewpoint Dewpoint Depression Visibility Wind Speed Wind Dir Waves Ship Positions

Mt Bomar Mars

Last reported at 2017-Feb-19 18:32 UTC. Time now 2017-Feb-19 18:45 UTC.
Position N 49°28' E 000°32'.

Length 107 m; draft 4.9 m.

Type: Ship. MMSI: 256784000.

Date/timePositionNaut miles runAvg speedWind from/ knotsBaromVisibWave heightAir tempDewpointWater temp
2017-Feb-19 18:32N 49°28' E 000°32'0 0.0
2017-Feb-19 17:32N 49°28' E 000°32'0 0.0
2017-Feb-19 16:32N 49°28' E 000°32'0 0.0
2017-Feb-19 15:29N 49°28' E 000°32'0 0.0
2017-Feb-19 14:20N 49°28' E 000°32'0 0.0
2017-Feb-19 13:20N 49°28' E 000°32'0 0.0
2017-Feb-19 12:26N 49°28' E 000°32'0 0.0
2017-Feb-19 11:20N 49°28' E 000°32'0 0.0
2017-Feb-19 10:32N 49°28' E 000°32'0 0.0
2017-Feb-19 09:23N 49°28' E 000°32'0 0.0
2017-Feb-19 08:32N 49°28' E 000°32'0 0.0
2017-Feb-19 07:29N 49°28' E 000°32'0 0.0
2017-Feb-19 06:32N 49°28' E 000°32'0 0.0
2017-Feb-19 05:29N 49°28' E 000°32'0 0.0
2017-Feb-19 04:29N 49°28' E 000°32'0 0.0
2017-Feb-19 03:32N 49°28' E 000°32'1 0.7
2017-Feb-19 02:34N 49°28' E 000°33'10 9.9
2017-Feb-19 01:33N 49°26' E 000°18'1212.4
2017-Feb-19 00:33N 49°28' W 000°01'9 8.9
2017-Feb-18 23:33N 49°34' W 000°12'1212.0
2017-Feb-18 22:33N 49°39' W 000°28'1211.8
2017-Feb-18 21:33N 49°45' W 000°44'1111.3
2017-Feb-18 20:33N 49°50' W 000°60'1010.1
2017-Feb-18 19:33N 49°54' W 001°14'9 9.5
2017-Feb-18 18:34N 49°54' W 001°29'10 9.6
2017-Feb-18 17:34N 49°54' W 001°44'1010.2
2017-Feb-18 16:34N 49°54' W 001°59'1211.7
2017-Feb-18 15:31N 49°54' W 002°18'1212.4
2017-Feb-18 14:33N 49°52' W 002°36'1312.6
2017-Feb-18 13:34N 49°48' W 002°55'1212.3
2017-Feb-18 12:34N 49°42' W 003°11'1211.5
2017-Feb-18 11:33N 49°36' W 003°27'7011.4
2017-Feb-18 05:27N 49°01' W 004°60'1010.8
2017-Feb-18 04:33N 48°56' W 005°12'1010.4
2017-Feb-18 03:33N 48°51' W 005°26'1010.0
2017-Feb-18 02:34N 48°45' W 005°39'1010.3
2017-Feb-18 01:33N 48°36' W 005°46'2110.2
2017-Feb-17 23:33N 48°17' W 005°57'  
2017-Feb-14 04:19N 49°52' W 003°14'12311.0
2017-Feb-13 17:12N 50°27' W 000°11'913.4
2017-Feb-13 16:33N 50°29' E 000°03'5811.0
2017-Feb-13 11:17N 50°58' E 001°23'912.0
2017-Feb-13 10:33N 51°04' E 001°32'1413.6
2017-Feb-13 09:34N 51°14' E 001°47'1313.5
2017-Feb-13 08:33N 51°26' E 001°56'1212.3
2017-Feb-13 07:32N 51°36' E 002°09'1111.4
2017-Feb-13 06:33N 51°45' E 002°21'7610.3
2017-Feb-12 23:11N 52°31' E 003°58'812.2
2017-Feb-12 22:33N 52°31' E 004°11'1211.7
2017-Feb-12 21:34N 52°28' E 004°30'4 4.4
2017-Feb-12 20:33N 52°28' E 004°37'6 6.5
2017-Feb-12 19:33N 52°25' E 004°46'1 0.8
2017-Feb-12 18:31N 52°24' E 004°46'0 0.0
2017-Feb-12 17:31N 52°24' E 004°46'0 0.0
2017-Feb-12 16:31N 52°24' E 004°46'0 0.0
2017-Feb-12 15:31N 52°24' E 004°46'0 0.0
2017-Feb-12 14:31N 52°24' E 004°46'0 0.0
2017-Feb-12 13:31N 52°24' E 004°46'0 0.0
2017-Feb-12 12:25N 52°24' E 004°46'0 0.0
2017-Feb-12 11:31N 52°24' E 004°46'0 0.0
2017-Feb-12 10:25N 52°24' E 004°46'0 0.0
2017-Feb-12 09:31N 52°24' E 004°46'0 0.0
2017-Feb-12 08:16N 52°24' E 004°46'0 0.0
2017-Feb-12 07:31N 52°24' E 004°46'0 0.0
2017-Feb-12 06:31N 52°24' E 004°46'0 0.0
2017-Feb-12 05:25N 52°24' E 004°46'0 0.0
2017-Feb-12 04:31N 52°24' E 004°46'0 0.0
2017-Feb-12 03:28N 52°24' E 004°46'0 0.0
2017-Feb-12 02:31N 52°24' E 004°46'0 0.1
2017-Feb-12 01:33N 52°24' E 004°46'7 7.2
2017-Feb-12 00:33N 52°28' E 004°36'4 4.3
2017-Feb-11 23:33N 52°28' E 004°29'10 9.7
2017-Feb-11 22:33N 52°29' E 004°13'1010.1
2017-Feb-11 21:33N 52°28' E 003°57'85 9.5
2017-Feb-11 12:33N 51°30' E 002°15'1212.5
2017-Feb-11 11:33N 51°21' E 002°01'1212.4
2017-Feb-11 10:33N 51°12' E 001°47'1111.3
2017-Feb-11 09:33N 51°03' E 001°36'1010.4
2017-Feb-11 08:33N 50°54' E 001°27'60 9.2
2017-Feb-11 02:06N 50°20' E 000°10'610.4
2017-Feb-11 01:29N 50°19' E 000°00'40 8.1
2017-Feb-10 20:33N 50°09' W 001°01'9 9.3
2017-Feb-10 19:33N 50°06' W 001°14'9 8.9
2017-Feb-10 18:33N 50°03' W 001°27'4 4.2
2017-Feb-10 17:33N 50°00' W 001°22'8 7.6
2017-Feb-10 16:33N 49°59' W 001°10'8 8.3
2017-Feb-10 15:33N 49°55' W 000°59'9 8.9
2017-Feb-10 14:33N 49°49' W 000°49'9 9.2
2017-Feb-10 13:33N 49°42' W 000°39'10 9.7
2017-Feb-10 12:33N 49°37' W 000°26'10 9.6
2017-Feb-10 11:33N 49°31' W 000°15'4 3.9
2017-Feb-10 10:33N 49°29' W 000°09'0 0.0
2017-Feb-10 09:33N 49°29' W 000°09'0 0.1
2017-Feb-10 08:33N 49°30' W 000°09'0 0.1
2017-Feb-10 07:33N 49°30' W 000°09'0 0.1
2017-Feb-10 06:33N 49°29' W 000°09'0 0.0
2017-Feb-10 05:33N 49°29' W 000°09'0 0.0
2017-Feb-10 04:33N 49°29' W 000°09'0 0.0
2017-Feb-10 03:33N 49°29' W 000°09'0 0.0
2017-Feb-10 02:33N 49°29' W 000°09'0 0.0
2017-Feb-10 01:33N 49°29' W 000°09'0 0.0
2017-Feb-10 00:33N 49°29' W 000°09'0 0.0
2017-Feb-09 23:33N 49°29' W 000°09'0 0.0
2017-Feb-09 22:33N 49°29' W 000°09'0 0.1
2017-Feb-09 21:30N 49°30' W 000°09'0 0.0
2017-Feb-09 20:33N 49°30' W 000°09'0 0.1
2017-Feb-09 19:33N 49°30' W 000°09'0 0.1
2017-Feb-09 18:33N 49°30' W 000°09'  
Track history (hours):
 
Tides and Currents Weather Stations Pressure Air Temp Water Temp Dewpoint Dewpoint Depression Visibility Wind Speed Wind Dir Waves Ship Positions

Mt Bomar Mars

Last reported at 2017-Feb-19 18:32 UTC. Time now 2017-Feb-19 18:45 UTC.
Position N 49°28' E 000°32'.

Length 107 m; draft 4.9 m.

Type: Ship. MMSI: 256784000.

Date/timePositionNaut miles runAvg speedWind from/ knotsBaromVisibWave heightAir tempDewpointWater temp
2017-Feb-19 18:32N 49°28' E 000°32'0 0.0
2017-Feb-19 17:32N 49°28' E 000°32'0 0.0
2017-Feb-19 16:32N 49°28' E 000°32'0 0.0
2017-Feb-19 15:29N 49°28' E 000°32'0 0.0
2017-Feb-19 14:20N 49°28' E 000°32'0 0.0
2017-Feb-19 13:20N 49°28' E 000°32'0 0.0
2017-Feb-19 12:26N 49°28' E 000°32'0 0.0
2017-Feb-19 11:20N 49°28' E 000°32'0 0.0
2017-Feb-19 10:32N 49°28' E 000°32'0 0.0
2017-Feb-19 09:23N 49°28' E 000°32'0 0.0
2017-Feb-19 08:32N 49°28' E 000°32'0 0.0
2017-Feb-19 07:29N 49°28' E 000°32'0 0.0
2017-Feb-19 06:32N 49°28' E 000°32'0 0.0
2017-Feb-19 05:29N 49°28' E 000°32'0 0.0
2017-Feb-19 04:29N 49°28' E 000°32'0 0.0
2017-Feb-19 03:32N 49°28' E 000°32'1 0.7
2017-Feb-19 02:34N 49°28' E 000°33'10 9.9
2017-Feb-19 01:33N 49°26' E 000°18'1212.4
2017-Feb-19 00:33N 49°28' W 000°01'9 8.9
2017-Feb-18 23:33N 49°34' W 000°12'1212.0
2017-Feb-18 22:33N 49°39' W 000°28'1211.8
2017-Feb-18 21:33N 49°45' W 000°44'1111.3
2017-Feb-18 20:33N 49°50' W 000°60'1010.1
2017-Feb-18 19:33N 49°54' W 001°14'9 9.5
2017-Feb-18 18:34N 49°54' W 001°29'10 9.6
2017-Feb-18 17:34N 49°54' W 001°44'1010.2
2017-Feb-18 16:34N 49°54' W 001°59'1211.7
2017-Feb-18 15:31N 49°54' W 002°18'1212.4
2017-Feb-18 14:33N 49°52' W 002°36'1312.6
2017-Feb-18 13:34N 49°48' W 002°55'1212.3
2017-Feb-18 12:34N 49°42' W 003°11'1211.5
2017-Feb-18 11:33N 49°36' W 003°27'7011.4
2017-Feb-18 05:27N 49°01' W 004°60'1010.8
2017-Feb-18 04:33N 48°56' W 005°12'1010.4
2017-Feb-18 03:33N 48°51' W 005°26'1010.0
2017-Feb-18 02:34N 48°45' W 005°39'1010.3
2017-Feb-18 01:33N 48°36' W 005°46'2110.2
2017-Feb-17 23:33N 48°17' W 005°57'  
2017-Feb-14 04:19N 49°52' W 003°14'12311.0
2017-Feb-13 17:12N 50°27' W 000°11'913.4
2017-Feb-13 16:33N 50°29' E 000°03'5811.0
2017-Feb-13 11:17N 50°58' E 001°23'912.0
2017-Feb-13 10:33N 51°04' E 001°32'1413.6
2017-Feb-13 09:34N 51°14' E 001°47'1313.5
2017-Feb-13 08:33N 51°26' E 001°56'1212.3
2017-Feb-13 07:32N 51°36' E 002°09'1111.4
2017-Feb-13 06:33N 51°45' E 002°21'7610.3
2017-Feb-12 23:11N 52°31' E 003°58'812.2
2017-Feb-12 22:33N 52°31' E 004°11'1211.7
2017-Feb-12 21:34N 52°28' E 004°30'4 4.4
2017-Feb-12 20:33N 52°28' E 004°37'6 6.5
2017-Feb-12 19:33N 52°25' E 004°46'1 0.8
2017-Feb-12 18:31N 52°24' E 004°46'0 0.0
2017-Feb-12 17:31N 52°24' E 004°46'0 0.0
2017-Feb-12 16:31N 52°24' E 004°46'0 0.0
2017-Feb-12 15:31N 52°24' E 004°46'0 0.0
2017-Feb-12 14:31N 52°24' E 004°46'0 0.0
2017-Feb-12 13:31N 52°24' E 004°46'0 0.0
2017-Feb-12 12:25N 52°24' E 004°46'0 0.0
2017-Feb-12 11:31N 52°24' E 004°46'0 0.0
2017-Feb-12 10:25N 52°24' E 004°46'0 0.0
2017-Feb-12 09:31N 52°24' E 004°46'0 0.0
2017-Feb-12 08:16N 52°24' E 004°46'0 0.0
2017-Feb-12 07:31N 52°24' E 004°46'0 0.0
2017-Feb-12 06:31N 52°24' E 004°46'0 0.0
2017-Feb-12 05:25N 52°24' E 004°46'0 0.0
2017-Feb-12 04:31N 52°24' E 004°46'0 0.0
2017-Feb-12 03:28N 52°24' E 004°46'0 0.0
2017-Feb-12 02:31N 52°24' E 004°46'0 0.1
2017-Feb-12 01:33N 52°24' E 004°46'7 7.2
2017-Feb-12 00:33N 52°28' E 004°36'4 4.3
2017-Feb-11 23:33N 52°28' E 004°29'10 9.7
2017-Feb-11 22:33N 52°29' E 004°13'1010.1
2017-Feb-11 21:33N 52°28' E 003°57'85 9.5
2017-Feb-11 12:33N 51°30' E 002°15'1212.5
2017-Feb-11 11:33N 51°21' E 002°01'1212.4
2017-Feb-11 10:33N 51°12' E 001°47'1111.3
2017-Feb-11 09:33N 51°03' E 001°36'1010.4
2017-Feb-11 08:33N 50°54' E 001°27'60 9.2
2017-Feb-11 02:06N 50°20' E 000°10'610.4
2017-Feb-11 01:29N 50°19' E 000°00'40 8.1
2017-Feb-10 20:33N 50°09' W 001°01'9 9.3
2017-Feb-10 19:33N 50°06' W 001°14'9 8.9
2017-Feb-10 18:33N 50°03' W 001°27'4 4.2
2017-Feb-10 17:33N 50°00' W 001°22'8 7.6
2017-Feb-10 16:33N 49°59' W 001°10'8 8.3
2017-Feb-10 15:33N 49°55' W 000°59'9 8.9
2017-Feb-10 14:33N 49°49' W 000°49'9 9.2
2017-Feb-10 13:33N 49°42' W 000°39'10 9.7
2017-Feb-10 12:33N 49°37' W 000°26'10 9.6
2017-Feb-10 11:33N 49°31' W 000°15'4 3.9
2017-Feb-10 10:33N 49°29' W 000°09'0 0.0
2017-Feb-10 09:33N 49°29' W 000°09'0 0.1
2017-Feb-10 08:33N 49°30' W 000°09'0 0.1
2017-Feb-10 07:33N 49°30' W 000°09'0 0.1
2017-Feb-10 06:33N 49°29' W 000°09'0 0.0
2017-Feb-10 05:33N 49°29' W 000°09'0 0.0
2017-Feb-10 04:33N 49°29' W 000°09'0 0.0
2017-Feb-10 03:33N 49°29' W 000°09'0 0.0
2017-Feb-10 02:33N 49°29' W 000°09'0 0.0
2017-Feb-10 01:33N 49°29' W 000°09'0 0.0
2017-Feb-10 00:33N 49°29' W 000°09'0 0.0
2017-Feb-09 23:33N 49°29' W 000°09'0 0.0
2017-Feb-09 22:33N 49°29' W 000°09'0 0.1
2017-Feb-09 21:30N 49°30' W 000°09'0 0.0
2017-Feb-09 20:33N 49°30' W 000°09'0 0.1
2017-Feb-09 19:33N 49°30' W 000°09'0 0.1
2017-Feb-09 18:33N 49°30' W 000°09'  

Dump ship's entire track history